createdAt,value
2023-04-16T00:00:48.429Z,149.80
2023-04-16T00:01:48.430Z,146.80
2023-04-16T00:02:48.464Z,148.56
2023-04-16T00:03:48.697Z,148.78
2023-04-16T00:04:48.586Z,147.63
2023-04-16T00:05:48.442Z,146.68
2023-04-16T00:06:48.407Z,149.27
2023-04-16T00:07:48.433Z,149.33
2023-04-16T00:08:48.461Z,150.11
2023-04-16T00:09:48.394Z,149.38
2023-04-16T00:10:48.450Z,148.09
2023-04-16T00:11:48.440Z,147.35
2023-04-16T00:12:48.423Z,150.63
2023-04-16T00:13:48.678Z,149.54
2023-04-16T00:14:48.505Z,149.83
2023-04-16T00:15:48.474Z,150.95
2023-04-16T00:16:48.518Z,152.03
2023-04-16T00:17:48.514Z,147.86
2023-04-16T00:18:48.511Z,147.23
2023-04-16T00:19:48.503Z,148.03
2023-04-16T00:20:48.515Z,148.64
2023-04-16T00:21:48.504Z,151.02
2023-04-16T00:22:48.512Z,149.64
2023-04-16T00:23:48.539Z,146.94
2023-04-16T00:24:48.531Z,145.26
2023-04-16T00:25:48.649Z,150.45
2023-04-16T00:26:48.584Z,148.19
2023-04-16T00:27:48.554Z,149.03
2023-04-16T00:28:48.577Z,147.61
2023-04-16T00:29:48.601Z,149.08
2023-04-16T00:30:48.623Z,149.77
2023-04-16T00:31:48.625Z,150.52
2023-04-16T00:32:48.724Z,150.36
2023-04-16T00:33:48.639Z,148.63
2023-04-16T00:34:48.641Z,148.64
2023-04-16T00:35:48.641Z,148.91
2023-04-16T00:36:48.652Z,151.98
2023-04-16T00:37:48.666Z,150.88
2023-04-16T00:38:48.690Z,147.41
2023-04-16T00:39:48.756Z,150.39
2023-04-16T00:40:48.707Z,149.49
2023-04-16T00:41:48.734Z,150.95
2023-04-16T00:42:48.735Z,149.54
2023-04-16T00:43:48.740Z,149.64
2023-04-16T00:44:48.781Z,146.48
2023-04-16T00:45:48.827Z,148.67
2023-04-16T00:46:48.802Z,150.31
2023-04-16T00:47:48.820Z,150.12
2023-04-16T00:48:48.853Z,146.38
2023-04-16T00:49:48.849Z,148.32
2023-04-16T00:50:48.882Z,150.11
2023-04-16T00:51:48.896Z,150.92
2023-04-16T00:52:48.990Z,148.34
2023-04-16T00:53:48.899Z,150.01
2023-04-16T00:54:48.899Z,150.48
2023-04-16T00:55:48.953Z,145.87
2023-04-16T00:56:48.964Z,151.02
2023-04-16T00:57:48.963Z,150.91
2023-04-16T00:58:48.983Z,151.14
2023-04-16T00:59:49.021Z,149.79
2023-04-16T01:00:49.002Z,149.84
2023-04-16T01:01:49.102Z,151.75
2023-04-16T01:02:49.228Z,149.93
2023-04-16T01:03:49.199Z,149.78
2023-04-16T01:04:49.201Z,149.50
2023-04-16T01:05:49.122Z,149.49
2023-04-16T01:06:49.117Z,148.81
2023-04-16T01:07:49.175Z,148.89
2023-04-16T01:08:49.257Z,150.93
2023-04-16T01:09:49.165Z,149.29
2023-04-16T01:10:49.879Z,148.64
2023-04-16T01:11:49.168Z,152.27
2023-04-16T01:12:49.204Z,150.86
2023-04-16T01:13:49.213Z,150.60
2023-04-16T01:14:49.225Z,148.01
2023-04-16T01:15:49.282Z,151.96
2023-04-16T01:16:49.272Z,149.95
2023-04-16T01:17:49.334Z,151.87
2023-04-16T01:18:49.325Z,151.93
2023-04-16T01:19:49.493Z,148.10
2023-04-16T01:20:49.345Z,150.06
2023-04-16T01:21:49.452Z,150.18
2023-04-16T01:22:49.390Z,148.99
2023-04-16T01:23:49.375Z,148.52
2023-04-16T01:24:49.406Z,149.42
2023-04-16T01:25:49.420Z,149.29
2023-04-16T01:26:49.470Z,149.05
2023-04-16T01:27:49.488Z,152.19
2023-04-16T01:28:49.441Z,151.51
2023-04-16T01:29:49.468Z,150.59
2023-04-16T01:30:49.501Z,151.77
2023-04-16T01:31:49.655Z,148.55
2023-04-16T01:32:49.547Z,150.40
2023-04-16T01:33:49.513Z,154.91
2023-04-16T01:34:49.530Z,149.34
2023-04-16T01:35:49.563Z,153.24
2023-04-16T01:36:49.588Z,149.69
2023-04-16T01:37:49.590Z,149.42
2023-04-16T01:38:49.659Z,150.07
2023-04-16T01:39:49.597Z,150.98
2023-04-16T01:40:49.670Z,152.51
2023-04-16T01:41:49.636Z,151.83
2023-04-16T01:42:49.688Z,151.58
2023-04-16T01:43:49.688Z,148.61
2023-04-16T01:44:49.731Z,148.28
2023-04-16T01:45:49.779Z,149.59
2023-04-16T01:46:49.849Z,148.05
2023-04-16T01:47:49.750Z,148.57
2023-04-16T01:48:49.756Z,149.13
2023-04-16T01:49:49.802Z,151.41
2023-04-16T01:50:49.809Z,149.56
2023-04-16T01:51:49.862Z,150.70
2023-04-16T01:52:49.887Z,151.20
2023-04-16T01:53:49.888Z,152.27
2023-04-16T01:54:49.863Z,151.30
2023-04-16T01:55:49.887Z,151.75
2023-04-16T01:56:49.910Z,149.25
2023-04-16T01:57:49.930Z,152.27
2023-04-16T01:58:49.932Z,149.58
2023-04-16T01:59:50.009Z,150.17
2023-04-16T02:00:50.032Z,146.34
2023-04-16T02:01:50.111Z,151.24
2023-04-16T02:02:50.102Z,150.28
2023-04-16T02:03:50.239Z,151.59
2023-04-16T02:04:50.031Z,150.40
2023-04-16T02:05:50.073Z,149.79
2023-04-16T02:06:50.130Z,152.26
2023-04-16T02:07:50.203Z,151.64
2023-04-16T02:08:50.141Z,155.04
2023-04-16T02:09:50.288Z,152.15
2023-04-16T02:10:50.181Z,152.91
2023-04-16T02:11:50.202Z,153.39
2023-04-16T02:12:50.201Z,149.84
2023-04-16T02:13:50.207Z,150.96
2023-04-16T02:14:50.218Z,153.53
2023-04-16T02:15:50.293Z,153.13
2023-04-16T02:16:50.307Z,151.23
2023-04-16T02:17:50.352Z,151.27
2023-04-16T02:18:50.370Z,151.71
2023-04-16T02:19:50.384Z,149.65
2023-04-16T02:20:50.386Z,151.45
2023-04-16T02:21:50.356Z,149.77
2023-04-16T02:22:50.357Z,153.64
2023-04-16T02:23:50.390Z,151.27
2023-04-16T02:24:50.380Z,153.80
2023-04-16T02:25:50.414Z,153.25
2023-04-16T02:26:50.412Z,150.99
2023-04-16T02:27:50.456Z,150.41
2023-04-16T02:28:50.539Z,153.13
2023-04-16T02:29:50.612Z,149.53
2023-04-16T02:30:50.570Z,151.63
2023-04-16T02:31:50.586Z,154.77
2023-04-16T02:32:50.583Z,151.80
2023-04-16T02:33:50.541Z,151.10
2023-04-16T02:34:50.575Z,153.22
2023-04-16T02:35:51.404Z,153.89
2023-04-16T02:36:50.623Z,153.21
2023-04-16T02:37:50.670Z,154.47
2023-04-16T02:38:50.623Z,152.22
2023-04-16T02:39:50.679Z,151.02
2023-04-16T02:40:50.688Z,152.28
2023-04-16T02:41:50.802Z,153.23
2023-04-16T02:42:50.779Z,153.18
2023-04-16T02:43:50.776Z,151.15
2023-04-16T02:44:50.826Z,152.62
2023-04-16T02:45:50.846Z,152.36
2023-04-16T02:46:50.787Z,151.79
2023-04-16T02:47:50.895Z,154.20
2023-04-16T02:48:50.851Z,153.55
2023-04-16T02:49:50.915Z,152.18
2023-04-16T02:50:50.989Z,152.69
2023-04-16T02:51:50.893Z,153.53
2023-04-16T02:52:50.972Z,152.37
2023-04-16T02:53:50.989Z,152.03
2023-04-16T02:54:50.994Z,151.74
2023-04-16T02:55:51.004Z,152.02
2023-04-16T02:56:51.065Z,152.54
2023-04-16T02:57:51.412Z,152.12
2023-04-16T02:58:51.180Z,154.49
2023-04-16T02:59:51.128Z,151.50
2023-04-16T03:00:51.154Z,151.01
2023-04-16T03:01:51.227Z,151.86
2023-04-16T03:02:51.350Z,152.11
2023-04-16T03:03:51.262Z,151.37
2023-04-16T03:04:51.221Z,153.97
2023-04-16T03:05:51.264Z,152.55
2023-04-16T03:06:51.280Z,151.90
2023-04-16T03:07:51.388Z,152.35
2023-04-16T03:08:51.339Z,152.17
2023-04-16T03:09:51.355Z,152.10
2023-04-16T03:10:51.403Z,154.45
2023-04-16T03:11:51.473Z,152.33
2023-04-16T03:12:51.453Z,149.64
2023-04-16T03:13:51.487Z,151.49
2023-04-16T03:14:51.502Z,150.88
2023-04-16T03:15:51.569Z,151.38
2023-04-16T03:16:51.549Z,150.57
2023-04-16T03:17:51.614Z,152.00
2023-04-16T03:18:51.691Z,151.17
2023-04-16T03:19:51.628Z,150.11
2023-04-16T03:20:51.674Z,154.03
2023-04-16T03:21:51.685Z,151.83
2023-04-16T03:22:51.752Z,154.02
2023-04-16T03:23:51.716Z,152.04
2023-04-16T03:24:51.770Z,153.50
2023-04-16T03:25:51.810Z,153.78
2023-04-16T03:26:51.855Z,151.17
2023-04-16T03:27:51.834Z,154.47
2023-04-16T03:28:51.830Z,152.60
2023-04-16T03:29:51.911Z,151.45
2023-04-16T03:30:51.962Z,155.68
2023-04-16T03:31:51.926Z,155.03
2023-04-16T03:32:52.099Z,152.46
2023-04-16T03:33:52.004Z,154.89
2023-04-16T03:34:52.043Z,153.78
2023-04-16T03:35:52.074Z,153.98
2023-04-16T03:36:52.098Z,151.46
2023-04-16T03:37:52.161Z,151.64
2023-04-16T03:38:52.168Z,153.22
2023-04-16T03:39:52.300Z,152.10
2023-04-16T03:40:52.224Z,155.67
2023-04-16T03:41:52.262Z,152.89
2023-04-16T03:42:52.298Z,154.07
2023-04-16T03:43:52.325Z,153.44
2023-04-16T03:44:52.383Z,153.70
2023-04-16T03:45:52.391Z,152.96
2023-04-16T03:46:52.586Z,150.13
2023-04-16T03:47:52.527Z,152.78
2023-04-16T03:48:52.535Z,152.02
2023-04-16T03:49:52.550Z,152.02
2023-04-16T03:50:52.524Z,151.68
2023-04-16T03:51:52.671Z,153.94
2023-04-16T03:52:52.619Z,151.12
2023-04-16T03:53:52.671Z,150.32
2023-04-16T03:54:52.682Z,151.74
2023-04-16T03:55:52.750Z,152.01
2023-04-16T03:56:52.782Z,153.81
2023-04-16T03:57:52.817Z,155.77
2023-04-16T03:58:52.837Z,152.50
2023-04-16T03:59:52.822Z,152.22
2023-04-16T04:00:52.873Z,151.93
2023-04-16T04:01:52.995Z,152.89
2023-04-16T04:02:53.078Z,153.66
2023-04-16T04:03:53.108Z,155.53
2023-04-16T04:04:53.232Z,154.67
2023-04-16T04:05:53.032Z,154.17
2023-04-16T04:06:53.045Z,154.53
2023-04-16T04:07:53.133Z,154.89
2023-04-16T04:08:53.137Z,152.34
2023-04-16T04:09:53.153Z,152.32
2023-04-16T04:10:53.254Z,153.27
2023-04-16T04:11:53.263Z,153.58
2023-04-16T04:12:53.263Z,152.90
2023-04-16T04:13:53.349Z,152.05
2023-04-16T04:14:53.400Z,157.98
2023-04-16T04:15:53.341Z,153.93
2023-04-16T04:16:53.394Z,155.06
2023-04-16T04:17:53.461Z,153.61
2023-04-16T04:18:53.419Z,153.14
2023-04-16T04:20:01.275Z,151.50
2023-04-16T04:20:54.443Z,151.73
2023-04-16T04:21:53.436Z,152.51
2023-04-16T04:22:53.435Z,152.92
2023-04-16T04:23:54.453Z,152.56
2023-04-16T04:24:53.539Z,155.95
2023-04-16T04:25:53.685Z,152.99
2023-04-16T04:26:53.623Z,157.27
2023-04-16T04:27:53.678Z,153.21
2023-04-16T04:28:53.691Z,154.41
2023-04-16T04:29:53.738Z,154.85
2023-04-16T04:30:53.747Z,155.14
2023-04-16T04:31:53.796Z,154.81
2023-04-16T04:32:53.906Z,155.76
2023-04-16T04:33:53.817Z,152.63
2023-04-16T04:34:53.890Z,152.99
2023-04-16T04:35:53.940Z,155.51
2023-04-16T04:36:53.942Z,154.46
2023-04-16T04:37:53.986Z,156.34
2023-04-16T04:38:54.465Z,154.91
2023-04-16T04:39:54.064Z,153.81
2023-04-16T04:40:54.075Z,154.34
2023-04-16T04:41:54.124Z,153.99
2023-04-16T04:42:54.200Z,150.71
2023-04-16T04:43:54.203Z,152.92
2023-04-16T04:44:54.221Z,152.86
2023-04-16T04:45:54.309Z,153.67
2023-04-16T04:46:54.365Z,152.71
2023-04-16T04:47:54.361Z,154.98
2023-04-16T04:48:54.398Z,154.27
2023-04-16T04:49:54.379Z,156.09
2023-04-16T04:50:54.449Z,155.28
2023-04-16T04:51:54.452Z,153.69
2023-04-16T04:52:54.505Z,153.56
2023-04-16T04:53:54.535Z,155.00
2023-04-16T04:54:54.589Z,155.49
2023-04-16T04:55:57.527Z,154.76
2023-04-16T04:56:55.615Z,154.96
2023-04-16T04:57:54.600Z,154.86
2023-04-16T04:58:54.548Z,155.12
2023-04-16T04:59:54.556Z,154.45
2023-04-16T05:00:54.622Z,156.07
2023-04-16T05:01:54.591Z,152.36
2023-04-16T05:02:54.615Z,154.47
2023-04-16T05:03:54.604Z,153.32
2023-04-16T05:04:54.620Z,152.62
2023-04-16T05:05:54.491Z,152.81
2023-04-16T05:06:54.474Z,157.45
2023-04-16T05:07:54.510Z,156.87
2023-04-16T05:08:54.516Z,154.88
2023-04-16T05:09:54.477Z,153.51
2023-04-16T05:10:54.538Z,154.73
2023-04-16T05:11:54.533Z,154.35
2023-04-16T05:12:54.597Z,155.52
2023-04-16T05:13:54.667Z,155.58
2023-04-16T05:14:54.662Z,155.21
2023-04-16T05:15:54.727Z,155.63
2023-04-16T05:16:54.749Z,155.80
2023-04-16T05:17:54.814Z,154.15
2023-04-16T05:18:54.835Z,156.00
2023-04-16T05:19:54.844Z,153.52
2023-04-16T05:20:54.906Z,154.41
2023-04-16T05:21:54.918Z,152.81
2023-04-16T05:22:54.968Z,155.24
2023-04-16T05:23:55.059Z,154.31
2023-04-16T05:24:55.038Z,152.35
2023-04-16T05:25:55.066Z,153.48
2023-04-16T05:26:55.130Z,154.60
2023-04-16T05:27:55.172Z,154.51
2023-04-16T05:28:55.484Z,153.46
2023-04-16T05:29:55.236Z,154.02
2023-04-16T05:30:55.331Z,153.94
2023-04-16T05:31:55.289Z,155.79
2023-04-16T05:32:55.370Z,155.38
2023-04-16T05:33:55.356Z,156.11
2023-04-16T05:34:55.425Z,156.75
2023-04-16T05:35:55.516Z,156.59
2023-04-16T05:36:55.483Z,151.82
2023-04-16T05:37:55.494Z,156.04
2023-04-16T05:38:55.628Z,154.89
2023-04-16T05:39:55.638Z,153.98
2023-04-16T05:40:55.622Z,155.80
2023-04-16T05:41:55.671Z,154.24
2023-04-16T05:42:55.692Z,158.83
2023-04-16T05:43:55.735Z,155.79
2023-04-16T05:44:55.781Z,156.45
2023-04-16T05:45:55.793Z,155.80
2023-04-16T05:46:55.854Z,156.09
2023-04-16T05:47:55.849Z,156.85
2023-04-16T05:48:55.865Z,153.97
2023-04-16T05:49:55.895Z,156.37
2023-04-16T05:50:55.914Z,154.41
2023-04-16T05:51:55.985Z,154.36
2023-04-16T05:52:56.015Z,154.99
2023-04-16T05:53:55.995Z,154.74
2023-04-16T05:54:56.063Z,154.54
2023-04-16T05:55:56.097Z,153.71
2023-04-16T05:56:56.128Z,154.11
2023-04-16T05:57:56.181Z,155.53
2023-04-16T05:58:56.199Z,156.67
2023-04-16T05:59:56.313Z,154.46
2023-04-16T06:00:56.264Z,157.23
2023-04-16T06:01:56.349Z,152.80
2023-04-16T06:02:56.579Z,155.57
2023-04-16T06:03:56.509Z,154.15
2023-04-16T06:04:56.971Z,154.50
2023-04-16T06:05:56.592Z,156.49
2023-04-16T06:06:56.598Z,153.27
2023-04-16T06:07:56.601Z,156.66
2023-04-16T06:08:56.581Z,154.02
2023-04-16T06:09:56.604Z,157.18
2023-04-16T06:10:56.681Z,155.85
2023-04-16T06:11:56.696Z,155.46
2023-04-16T06:12:56.746Z,156.31
2023-04-16T06:13:56.752Z,153.27
2023-04-16T06:14:57.021Z,156.13
2023-04-16T06:15:56.924Z,154.40
2023-04-16T06:16:56.923Z,156.63
2023-04-16T06:17:58.059Z,154.68
2023-04-16T06:18:57.101Z,156.41
2023-04-16T06:19:57.163Z,153.54
2023-04-16T06:20:57.209Z,157.59
2023-04-16T06:21:57.260Z,156.22
2023-04-16T06:22:57.254Z,155.00
2023-04-16T06:23:57.322Z,155.41
2023-04-16T06:24:57.344Z,153.24
2023-04-16T06:25:57.349Z,155.38
2023-04-16T06:26:58.004Z,156.07
2023-04-16T06:27:57.434Z,155.56
2023-04-16T06:28:57.501Z,154.07
2023-04-16T06:29:57.568Z,156.40
2023-04-16T06:30:57.531Z,154.75
2023-04-16T06:31:57.608Z,151.76
2023-04-16T06:32:57.658Z,154.98
2023-04-16T06:33:57.708Z,154.27
2023-04-16T06:34:57.656Z,154.79
2023-04-16T06:35:57.697Z,157.00
2023-04-16T06:36:57.804Z,155.22
2023-04-16T06:37:57.742Z,155.23
2023-04-16T06:38:57.806Z,154.70
2023-04-16T06:39:57.861Z,156.89
2023-04-16T06:40:57.905Z,154.65
2023-04-16T06:41:57.907Z,158.42
2023-04-16T06:42:57.934Z,155.45
2023-04-16T06:43:57.979Z,152.87
2023-04-16T06:44:57.987Z,156.64
2023-04-16T06:45:58.046Z,155.97
2023-04-16T06:46:58.117Z,157.62
2023-04-16T06:47:58.153Z,155.79
2023-04-16T06:48:58.121Z,155.41
2023-04-16T06:49:58.178Z,155.90
2023-04-16T06:50:58.237Z,156.93
2023-04-16T06:51:58.288Z,153.95
2023-04-16T06:52:58.292Z,158.48
2023-04-16T06:53:58.312Z,151.61
2023-04-16T06:54:58.333Z,155.22
2023-04-16T06:55:58.491Z,156.33
2023-04-16T06:56:58.371Z,154.53
2023-04-16T06:57:58.536Z,154.28
2023-04-16T06:58:58.456Z,153.78
2023-04-16T06:59:58.499Z,155.34
2023-04-16T07:00:58.576Z,155.57
2023-04-16T07:01:58.636Z,155.04
2023-04-16T07:02:58.861Z,154.82
2023-04-16T07:03:58.911Z,155.23
2023-04-16T07:04:58.606Z,156.86
2023-04-16T07:05:58.655Z,156.49
2023-04-16T07:06:58.712Z,154.88
2023-04-16T07:07:58.665Z,156.06
2023-04-16T07:08:58.697Z,155.11
2023-04-16T07:09:58.772Z,158.08
2023-04-16T07:10:58.727Z,156.32
2023-04-16T07:11:59.553Z,157.63
2023-04-16T07:12:58.799Z,157.55
2023-04-16T07:13:58.801Z,157.09
2023-04-16T07:14:58.823Z,155.71
2023-04-16T07:15:58.859Z,156.34
2023-04-16T07:16:59.001Z,156.37
2023-04-16T07:17:58.940Z,155.53
2023-04-16T07:18:58.922Z,155.53
2023-04-16T07:19:58.912Z,157.54
2023-04-16T07:20:58.962Z,158.09
2023-04-16T07:21:58.992Z,157.36
2023-04-16T07:22:58.962Z,158.30
2023-04-16T07:23:59.010Z,158.38
2023-04-16T07:24:59.087Z,154.78
2023-04-16T07:25:59.062Z,156.89
2023-04-16T07:26:59.048Z,156.29
2023-04-16T07:27:59.111Z,154.40
2023-04-16T07:28:59.162Z,155.95
2023-04-16T07:29:59.072Z,156.27
2023-04-16T07:30:59.090Z,157.63
2023-04-16T07:31:59.231Z,155.89
2023-04-16T07:32:59.219Z,157.81
2023-04-16T07:33:59.145Z,158.74
2023-04-16T07:34:59.185Z,157.17
2023-04-16T07:35:59.194Z,159.26
2023-04-16T07:36:59.213Z,157.62
2023-04-16T07:37:59.258Z,157.87
2023-04-16T07:38:59.222Z,153.14
2023-04-16T07:39:59.241Z,157.21
2023-04-16T07:40:59.256Z,155.56
2023-04-16T07:41:59.298Z,158.12
2023-04-16T07:42:59.451Z,158.79
2023-04-16T07:43:59.312Z,157.31
2023-04-16T07:44:59.344Z,154.52
2023-04-16T07:45:59.401Z,155.02
2023-04-16T07:46:59.431Z,157.22
2023-04-16T07:47:59.423Z,153.05
2023-04-16T07:48:59.451Z,156.72
2023-04-16T07:49:59.390Z,158.02
2023-04-16T07:50:59.413Z,155.03
2023-04-16T07:51:59.405Z,156.88
2023-04-16T07:52:59.482Z,156.54
2023-04-16T07:53:59.440Z,155.32
2023-04-16T07:54:59.444Z,155.13
2023-04-16T07:55:59.433Z,156.97
2023-04-16T07:56:59.460Z,157.02
2023-04-16T07:57:59.517Z,157.97
2023-04-16T07:59:07.939Z,155.31
2023-04-16T08:00:00.463Z,155.54
2023-04-16T08:00:59.464Z,155.87
2023-04-16T08:01:59.637Z,156.60
2023-04-16T08:02:59.573Z,156.50
2023-04-16T08:03:59.647Z,162.80
2023-04-16T08:04:59.483Z,158.59
2023-04-16T08:05:59.472Z,158.93
2023-04-16T08:06:59.405Z,160.86
2023-04-16T08:07:59.433Z,157.12
2023-04-16T08:08:59.428Z,162.74
2023-04-16T08:09:59.396Z,161.55
2023-04-16T08:10:59.419Z,158.88
2023-04-16T08:11:59.440Z,156.59
2023-04-16T08:12:59.410Z,157.68
2023-04-16T08:13:59.372Z,160.07
2023-04-16T08:14:59.385Z,155.93
2023-04-16T08:15:59.552Z,156.26
2023-04-16T08:16:59.386Z,158.81
2023-04-16T08:17:59.372Z,158.38
2023-04-16T08:18:59.349Z,157.68
2023-04-16T08:19:59.352Z,157.81
2023-04-16T08:20:59.332Z,158.65
2023-04-16T08:21:59.370Z,157.57
2023-04-16T08:22:59.342Z,158.96
2023-04-16T08:23:59.318Z,159.46
2023-04-16T08:24:59.328Z,161.33
2023-04-16T08:25:59.397Z,158.27
2023-04-16T08:27:08.166Z,160.81
2023-04-16T08:28:00.300Z,161.10
2023-04-16T08:28:59.286Z,160.82
2023-04-16T08:29:59.280Z,161.44
2023-04-16T08:30:59.322Z,161.97
2023-04-16T08:31:59.270Z,165.41
2023-04-16T08:32:59.367Z,162.73
2023-04-16T08:33:59.238Z,159.17
2023-04-16T08:34:59.345Z,157.72
2023-04-16T08:35:59.272Z,160.75
2023-04-16T08:36:59.238Z,159.93
2023-04-16T08:38:00.569Z,159.37
2023-04-16T08:38:59.289Z,162.94
2023-04-16T08:39:59.236Z,160.00
2023-04-16T08:40:59.192Z,160.07
2023-04-16T08:41:59.240Z,160.38
2023-04-16T08:42:59.256Z,159.41
2023-04-16T08:43:59.217Z,161.72
2023-04-16T08:44:59.178Z,161.53
2023-04-16T08:45:59.163Z,158.07
2023-04-16T08:46:59.305Z,162.91
2023-04-16T08:47:59.177Z,162.10
2023-04-16T08:48:59.197Z,162.63
2023-04-16T08:49:59.182Z,162.57
2023-04-16T08:50:59.125Z,160.94
2023-04-16T08:51:59.165Z,159.52
2023-04-16T08:52:59.207Z,161.85
2023-04-16T08:53:59.112Z,161.12
2023-04-16T08:54:59.128Z,161.44
2023-04-16T08:55:59.131Z,162.24
2023-04-16T08:56:59.099Z,161.24
2023-04-16T08:57:59.067Z,163.73
2023-04-16T08:58:59.069Z,160.35
2023-04-16T08:59:59.069Z,162.28
2023-04-16T09:00:59.074Z,161.41
2023-04-16T09:01:59.184Z,161.11
2023-04-16T09:02:59.209Z,163.51
2023-04-16T09:03:59.295Z,163.70
2023-04-16T09:04:59.086Z,164.89
2023-04-16T09:05:59.062Z,161.85
2023-04-16T09:06:59.061Z,162.73
2023-04-16T09:07:59.007Z,163.11
2023-04-16T09:08:58.998Z,160.87
2023-04-16T09:09:59.051Z,162.55
2023-04-16T09:10:59.009Z,163.81
2023-04-16T09:11:59.124Z,162.80
2023-04-16T09:12:59.017Z,162.79
2023-04-16T09:13:59.052Z,163.23
2023-04-16T09:14:58.977Z,164.75
2023-04-16T09:15:58.971Z,163.82
2023-04-16T09:16:58.965Z,166.85
2023-04-16T09:17:59.052Z,165.33
2023-04-16T09:18:58.967Z,164.08
2023-04-16T09:19:58.901Z,169.51
2023-04-16T09:20:58.960Z,161.93
2023-04-16T09:21:58.964Z,164.21
2023-04-16T09:22:58.893Z,167.22
2023-04-16T09:23:58.919Z,165.15
2023-04-16T09:24:58.911Z,166.56
2023-04-16T09:25:58.985Z,165.20
2023-04-16T09:26:59.092Z,168.48
2023-04-16T09:27:58.859Z,165.75
2023-04-16T09:28:58.922Z,164.49
2023-04-16T09:29:58.884Z,163.70
2023-04-16T09:30:58.961Z,165.72
2023-04-16T09:31:58.880Z,164.47
2023-04-16T09:32:58.895Z,167.96
2023-04-16T09:33:58.831Z,164.33
2023-04-16T09:34:58.849Z,167.07
2023-04-16T09:35:58.819Z,165.98
2023-04-16T09:36:58.819Z,167.28
2023-04-16T09:37:59.856Z,165.98
2023-04-16T09:38:58.937Z,168.56
2023-04-16T09:39:58.987Z,168.25
2023-04-16T09:40:59.100Z,167.09
2023-04-16T09:41:59.140Z,164.84
2023-04-16T09:42:59.172Z,166.84
2023-04-16T09:43:59.270Z,167.79
2023-04-16T09:45:00.485Z,167.60
2023-04-16T09:45:59.406Z,167.13
2023-04-16T09:46:59.445Z,167.99
2023-04-16T09:47:59.545Z,166.98
2023-04-16T09:48:59.710Z,169.67
2023-04-16T09:49:59.578Z,167.92
2023-04-16T09:50:59.677Z,169.38
2023-04-16T09:51:59.773Z,165.84
2023-04-16T09:52:59.795Z,166.81
2023-04-16T09:53:59.839Z,166.61
2023-04-16T09:54:59.913Z,167.42
2023-04-16T09:55:59.870Z,169.22
2023-04-16T09:56:59.955Z,166.12
2023-04-16T09:58:00.066Z,169.42
2023-04-16T09:59:00.058Z,167.76
2023-04-16T10:00:00.166Z,166.52
2023-04-16T10:01:00.240Z,165.74
2023-04-16T10:02:15.514Z,164.98
2023-04-16T10:03:01.283Z,165.19
2023-04-16T10:04:00.376Z,165.59
2023-04-16T10:05:00.176Z,165.52
2023-04-16T10:06:00.187Z,165.18
2023-04-16T10:07:00.197Z,168.60
2023-04-16T10:08:00.196Z,167.16
2023-04-16T10:09:00.166Z,167.51
2023-04-16T10:10:00.196Z,166.20
2023-04-16T10:11:00.164Z,167.65
2023-04-16T10:12:00.177Z,165.18
2023-04-16T10:13:00.237Z,163.61
2023-04-16T10:14:00.348Z,166.57
2023-04-16T10:15:00.285Z,167.78
2023-04-16T10:16:00.370Z,169.43
2023-04-16T10:17:00.466Z,169.73
2023-04-16T10:18:00.490Z,171.20
2023-04-16T10:19:00.486Z,165.28
2023-04-16T10:20:00.520Z,166.78
2023-04-16T10:21:00.523Z,168.55
2023-04-16T10:22:00.607Z,166.99
2023-04-16T10:23:00.570Z,165.71
2023-04-16T10:24:00.753Z,166.85
2023-04-16T10:25:00.684Z,166.01
2023-04-16T10:26:00.731Z,166.37
2023-04-16T10:27:00.801Z,167.72
2023-04-16T10:28:00.780Z,165.20
2023-04-16T10:29:01.651Z,168.13
2023-04-16T10:30:00.817Z,169.11
2023-04-16T10:31:00.959Z,163.89
2023-04-16T10:32:00.912Z,166.02
2023-04-16T10:33:01.095Z,169.13
2023-04-16T10:34:01.153Z,167.37
2023-04-16T10:35:00.995Z,168.94
2023-04-16T10:36:07.280Z,168.05
2023-04-16T10:37:02.033Z,168.16
2023-04-16T10:38:01.034Z,168.24
2023-04-16T10:39:01.027Z,169.51
2023-04-16T10:40:01.004Z,166.04
2023-04-16T10:41:00.969Z,166.71
2023-04-16T10:42:00.993Z,168.71
2023-04-16T10:43:01.003Z,169.31
2023-04-16T10:44:01.004Z,168.67
2023-04-16T10:45:00.952Z,170.35
2023-04-16T10:46:01.033Z,171.02
2023-04-16T10:47:00.976Z,167.92
2023-04-16T10:48:01.030Z,172.35
2023-04-16T10:49:00.917Z,167.86
2023-04-16T10:50:01.029Z,170.60
2023-04-16T10:51:00.922Z,168.89
2023-04-16T10:52:00.901Z,167.70
2023-04-16T10:53:00.922Z,166.55
2023-04-16T10:54:00.883Z,170.06
2023-04-16T10:55:00.907Z,165.46
2023-04-16T10:56:00.888Z,170.18
2023-04-16T10:57:03.674Z,165.91
2023-04-16T10:58:00.868Z,169.64
2023-04-16T10:59:00.857Z,166.14
2023-04-16T11:00:00.813Z,167.37
2023-04-16T11:01:00.870Z,168.89
2023-04-16T11:02:01.065Z,168.51
2023-04-16T11:03:00.948Z,168.54
2023-04-16T11:04:00.989Z,167.00
2023-04-16T11:05:00.881Z,166.85
2023-04-16T11:06:00.809Z,166.78
2023-04-16T11:07:00.834Z,167.13
2023-04-16T11:08:00.824Z,166.90
2023-04-16T11:09:00.762Z,167.29
2023-04-16T11:10:00.775Z,165.06
2023-04-16T11:11:00.748Z,169.05
2023-04-16T11:12:00.768Z,166.17
2023-04-16T11:13:00.765Z,167.32
2023-04-16T11:14:00.743Z,167.02
2023-04-16T11:15:00.889Z,165.16
2023-04-16T11:16:00.789Z,165.50
2023-04-16T11:17:00.871Z,166.31
2023-04-16T11:18:00.768Z,167.69
2023-04-16T11:19:00.734Z,166.04
2023-04-16T11:20:00.739Z,168.16
2023-04-16T11:21:00.691Z,166.40
2023-04-16T11:22:00.719Z,167.03
2023-04-16T11:23:00.718Z,167.63
2023-04-16T11:24:00.712Z,166.55
2023-04-16T11:25:00.687Z,167.02
2023-04-16T11:26:00.659Z,166.55
2023-04-16T11:27:00.676Z,166.90
2023-04-16T11:28:00.677Z,167.33
2023-04-16T11:29:00.641Z,168.48
2023-04-16T11:30:00.765Z,166.35
2023-04-16T11:31:00.722Z,169.09
2023-04-16T11:32:00.701Z,165.96
2023-04-16T11:33:00.908Z,165.73
2023-04-16T11:34:00.635Z,166.58
2023-04-16T11:35:00.788Z,167.62
2023-04-16T11:36:00.628Z,168.46
2023-04-16T11:37:00.585Z,168.78
2023-04-16T11:38:00.652Z,169.15
2023-04-16T11:39:00.623Z,167.20
2023-04-16T11:40:00.612Z,169.72
2023-04-16T11:41:00.630Z,167.15
2023-04-16T11:42:00.634Z,166.14
2023-04-16T11:43:00.580Z,165.91
2023-04-16T11:44:00.580Z,166.79
2023-04-16T11:45:00.602Z,169.45
2023-04-16T11:46:00.576Z,167.18
2023-04-16T11:47:00.626Z,169.59
2023-04-16T11:48:00.536Z,165.90
2023-04-16T11:49:00.533Z,167.14
2023-04-16T11:50:00.504Z,166.03
2023-04-16T11:51:00.520Z,164.40
2023-04-16T11:52:00.532Z,168.00
2023-04-16T11:53:00.529Z,165.66
2023-04-16T11:54:00.504Z,167.53
2023-04-16T11:55:00.508Z,167.67
2023-04-16T11:56:00.491Z,164.82
2023-04-16T11:57:00.536Z,166.25
2023-04-16T11:58:00.528Z,169.12
2023-04-16T11:59:00.490Z,166.99
2023-04-16T12:00:01.524Z,167.97
2023-04-16T12:01:00.479Z,169.66
2023-04-16T12:02:00.579Z,166.27
2023-04-16T12:03:00.531Z,167.54
2023-04-16T12:04:00.598Z,171.33
2023-04-16T12:05:00.456Z,169.40
2023-04-16T12:06:00.444Z,166.64
2023-04-16T12:07:00.446Z,166.65
2023-04-16T12:08:00.426Z,166.38
2023-04-16T12:09:00.434Z,168.75
2023-04-16T12:10:00.442Z,171.57
2023-04-16T12:11:00.451Z,168.67
2023-04-16T12:12:00.445Z,169.74
2023-04-16T12:13:00.386Z,168.34
2023-04-16T12:14:00.376Z,167.34
2023-04-16T12:15:00.412Z,166.95
2023-04-16T12:16:00.354Z,167.20
2023-04-16T12:17:00.378Z,166.95
2023-04-16T12:18:00.418Z,168.32
2023-04-16T12:19:00.323Z,165.30
2023-04-16T12:20:00.408Z,168.43
2023-04-16T12:21:00.327Z,168.62
2023-04-16T12:22:00.327Z,170.48
2023-04-16T12:23:00.371Z,169.92
2023-04-16T12:24:00.345Z,168.18
2023-04-16T12:25:00.316Z,169.70
2023-04-16T12:26:00.275Z,168.46
2023-04-16T12:27:00.285Z,170.60
2023-04-16T12:28:00.312Z,168.05
2023-04-16T12:29:00.297Z,168.34